createdAt,value
2017-05-03T00:00:06.662Z,0
2017-05-03T00:01:19.760Z,0
2017-05-03T00:02:32.557Z,0
2017-05-03T00:03:45.361Z,0
2017-05-03T00:04:58.154Z,0
2017-05-03T00:06:10.951Z,0
2017-05-03T00:07:23.747Z,0
2017-05-03T00:08:36.544Z,0
2017-05-03T00:09:49.346Z,0
2017-05-03T00:11:02.151Z,0
2017-05-03T00:12:14.477Z,0
2017-05-03T00:13:27.287Z,0
2017-05-03T00:14:39.604Z,0
2017-05-03T00:15:52.404Z,0
2017-05-03T00:17:05.202Z,0
2017-05-03T00:18:17.778Z,0
2017-05-03T00:19:30.589Z,0
2017-05-03T00:20:42.900Z,0
2017-05-03T00:21:55.700Z,0
2017-05-03T00:23:08.018Z,0
2017-05-03T00:24:20.823Z,0
2017-05-03T00:25:33.621Z,0
2017-05-03T00:26:46.422Z,0
2017-05-03T00:27:58.742Z,0
2017-05-03T00:29:11.074Z,0
2017-05-03T00:30:23.870Z,0
2017-05-03T00:31:36.671Z,0
2017-05-03T00:32:49.479Z,0
2017-05-03T00:34:02.539Z,0
2017-05-03T00:35:14.856Z,0
2017-05-03T00:36:27.657Z,0
2017-05-03T00:37:39.975Z,0
2017-05-03T00:38:52.775Z,0
2017-05-03T00:40:05.092Z,0
2017-05-03T00:41:17.892Z,0
2017-05-03T00:42:30.694Z,0
2017-05-03T00:43:43.014Z,0
2017-05-03T00:44:55.838Z,0
2017-05-03T00:46:08.148Z,0
2017-05-03T00:47:19.990Z,0
2017-05-03T00:48:32.797Z,0
2017-05-03T00:49:45.120Z,0
2017-05-03T00:50:58.171Z,0
2017-05-03T00:52:10.968Z,0
2017-05-03T00:53:23.294Z,0
2017-05-03T00:54:36.099Z,0
2017-05-03T00:55:48.661Z,0
2017-05-03T00:57:00.976Z,0
2017-05-03T00:58:13.774Z,0
2017-05-03T00:59:26.108Z,0
2017-05-03T01:00:38.908Z,0
2017-05-03T01:01:51.706Z,0
2017-05-03T01:03:04.502Z,0
2017-05-03T01:04:16.336Z,0
2017-05-03T01:05:29.145Z,0
2017-05-03T01:06:42.238Z,0
2017-05-03T01:07:55.043Z,0
2017-05-03T01:09:07.846Z,0
2017-05-03T01:10:20.161Z,0
2017-05-03T01:11:32.959Z,0
2017-05-03T01:12:45.278Z,0
2017-05-03T01:13:58.091Z,0
2017-05-03T01:15:10.898Z,0
2017-05-03T01:16:23.703Z,0
2017-05-03T01:17:36.512Z,0
2017-05-03T01:18:49.311Z,0
2017-05-03T01:20:02.117Z,0
2017-05-03T01:21:14.430Z,0
2017-05-03T01:22:27.228Z,0
2017-05-03T01:23:40.292Z,0
2017-05-03T01:24:53.094Z,0
2017-05-03T01:26:05.892Z,0
2017-05-03T01:27:18.689Z,0
2017-05-03T01:28:31.009Z,0
2017-05-03T01:29:43.809Z,0
2017-05-03T01:30:56.605Z,0
2017-05-03T01:32:09.404Z,0
2017-05-03T01:33:22.213Z,0
2017-05-03T01:34:35.021Z,0
2017-05-03T01:35:47.862Z,0
2017-05-03T01:37:00.668Z,0
2017-05-03T01:38:13.464Z,0
2017-05-03T01:39:26.260Z,0
2017-05-03T01:40:39.060Z,0
2017-05-03T01:41:51.859Z,0
2017-05-03T01:43:04.176Z,0
2017-05-03T01:44:16.014Z,0
2017-05-03T01:45:29.133Z,0
2017-05-03T01:46:41.451Z,0
2017-05-03T01:47:54.253Z,0
2017-05-03T01:49:07.055Z,0
2017-05-03T01:50:18.894Z,0
2017-05-03T01:51:31.704Z,0
2017-05-03T01:52:44.523Z,0
2017-05-03T01:53:57.320Z,0
2017-05-03T01:55:10.129Z,0
2017-05-03T01:56:22.951Z,0
2017-05-03T01:57:35.744Z,0
2017-05-03T01:58:48.541Z,0
2017-05-03T02:00:00.855Z,0
2017-05-03T02:01:13.915Z,0
2017-05-03T02:02:26.718Z,0
2017-05-03T02:03:39.524Z,0
2017-05-03T02:04:52.327Z,0
2017-05-03T02:06:05.137Z,0
2017-05-03T02:07:17.451Z,0
2017-05-03T02:08:29.768Z,0
2017-05-03T02:09:42.086Z,0
2017-05-03T02:10:54.413Z,0
2017-05-03T02:12:06.250Z,0
2017-05-03T02:13:19.052Z,0
2017-05-03T02:14:31.862Z,0
2017-05-03T02:15:44.664Z,0
2017-05-03T02:16:57.471Z,0
2017-05-03T02:18:10.287Z,0
2017-05-03T02:19:22.610Z,0
2017-05-03T02:20:34.927Z,0
2017-05-03T02:21:47.724Z,0
2017-05-03T02:23:00.532Z,0
2017-05-03T02:24:27.403Z,0
2017-05-03T02:25:40.204Z,0
2017-05-03T02:26:52.526Z,0
2017-05-03T02:28:05.331Z,0
2017-05-03T02:29:18.133Z,0
2017-05-03T02:30:30.445Z,0
2017-05-03T02:31:43.242Z,0
2017-05-03T02:32:55.570Z,0
2017-05-03T02:34:08.142Z,0
2017-05-03T02:35:20.459Z,0
2017-05-03T02:36:33.263Z,0
2017-05-03T02:37:46.066Z,0
2017-05-03T02:38:58.897Z,0
2017-05-03T02:40:25.764Z,0
2017-05-03T02:41:38.081Z,0
2017-05-03T02:42:50.891Z,0
2017-05-03T02:44:03.704Z,0
2017-05-03T02:45:16.271Z,0
2017-05-03T02:46:28.572Z,0
2017-05-03T02:47:41.366Z,0
2017-05-03T02:48:54.162Z,0
2017-05-03T02:50:06.962Z,0
2017-05-03T02:51:19.282Z,0
2017-05-03T02:52:32.089Z,0
2017-05-03T02:53:44.901Z,0
2017-05-03T02:54:57.707Z,0
2017-05-03T02:56:10.018Z,0
2017-05-03T02:57:22.335Z,0
2017-05-03T02:58:35.140Z,0
2017-05-03T02:59:47.931Z,0
2017-05-03T03:01:00.721Z,0
2017-05-03T03:02:13.032Z,0
2017-05-03T03:03:25.831Z,0
2017-05-03T03:04:38.623Z,0
2017-05-03T03:05:51.420Z,0
2017-05-03T03:07:04.465Z,0
2017-05-03T03:08:17.265Z,0
2017-05-03T03:09:30.070Z,0
2017-05-03T03:10:42.865Z,0
2017-05-03T03:11:55.966Z,0
2017-05-03T03:13:08.286Z,0
2017-05-03T03:14:20.605Z,0
2017-05-03T03:15:33.403Z,0
2017-05-03T03:16:46.190Z,0
2017-05-03T03:17:58.503Z,0
2017-05-03T03:19:10.814Z,0
2017-05-03T03:20:23.613Z,0
2017-05-03T03:21:36.405Z,0
2017-05-03T03:22:48.966Z,0
2017-05-03T03:24:01.282Z,0
2017-05-03T03:25:13.594Z,0
2017-05-03T03:26:25.907Z,0
2017-05-03T03:27:38.699Z,0
2017-05-03T03:28:51.502Z,0
2017-05-03T03:30:04.298Z,0
2017-05-03T03:31:17.085Z,0
2017-05-03T03:32:29.878Z,0
2017-05-03T03:33:42.673Z,0
2017-05-03T03:34:55.480Z,0
2017-05-03T03:36:08.280Z,0
2017-05-03T03:37:20.588Z,0
2017-05-03T03:38:33.384Z,0
2017-05-03T03:39:46.482Z,0
2017-05-03T03:40:58.316Z,0
2017-05-03T03:42:10.624Z,0
2017-05-03T03:43:22.936Z,0
2017-05-03T03:44:36.034Z,0
2017-05-03T03:45:48.342Z,0
2017-05-03T03:47:00.651Z,0
2017-05-03T03:48:13.438Z,0
2017-05-03T03:49:26.233Z,0
2017-05-03T03:50:39.028Z,0
2017-05-03T03:51:51.830Z,0
2017-05-03T03:53:04.145Z,0
2017-05-03T03:54:16.465Z,0
2017-05-03T03:55:29.561Z,0
2017-05-03T03:56:41.874Z,0
2017-05-03T03:57:54.673Z,0
2017-05-03T03:59:07.463Z,0
2017-05-03T04:00:19.776Z,0
2017-05-03T04:01:32.871Z,0
2017-05-03T04:02:45.670Z,0
2017-05-03T04:03:57.510Z,0
2017-05-03T04:05:10.299Z,0
2017-05-03T04:06:22.130Z,0
2017-05-03T04:07:34.923Z,0
2017-05-03T04:08:47.722Z,0
2017-05-03T04:10:00.527Z,0
2017-05-03T04:11:12.839Z,0
2017-05-03T04:12:25.400Z,0
2017-05-03T04:13:38.196Z,0
2017-05-03T04:14:50.543Z,0
2017-05-03T04:16:03.340Z,0
2017-05-03T04:17:16.389Z,0
2017-05-03T04:18:29.179Z,0
2017-05-03T04:19:41.966Z,0
2017-05-03T04:20:54.752Z,0
2017-05-03T04:22:07.548Z,0
2017-05-03T04:23:20.338Z,0
2017-05-03T04:24:32.647Z,0
2017-05-03T04:25:45.432Z,0
2017-05-03T04:26:58.213Z,0
2017-05-03T04:28:10.527Z,0
2017-05-03T04:29:23.311Z,0
2017-05-03T04:30:36.103Z,0
2017-05-03T04:31:48.413Z,0
2017-05-03T04:33:01.200Z,0
2017-05-03T04:34:13.322Z,0
2017-05-03T04:35:26.105Z,0
2017-05-03T04:36:38.890Z,0
2017-05-03T04:37:51.695Z,0
2017-05-03T04:39:04.298Z,0
2017-05-03T04:40:17.082Z,0
2017-05-03T04:41:29.864Z,0
2017-05-03T04:42:42.655Z,0
2017-05-03T04:43:55.434Z,0
2017-05-03T04:45:07.732Z,0
2017-05-03T04:46:20.039Z,0
2017-05-03T04:47:32.839Z,0
2017-05-03T04:48:45.625Z,0
2017-05-03T04:49:58.418Z,0
2017-05-03T04:51:10.724Z,0
2017-05-03T04:52:23.038Z,0
2017-05-03T04:53:35.839Z,0
2017-05-03T04:54:48.141Z,0
2017-05-03T04:56:00.929Z,0
2017-05-03T04:57:13.729Z,0
2017-05-03T04:58:26.047Z,0
2017-05-03T04:59:38.850Z,0
2017-05-03T05:00:51.638Z,0
2017-05-03T05:02:03.952Z,0
2017-05-03T05:03:16.274Z,0
2017-05-03T05:04:29.067Z,0
2017-05-03T05:05:41.899Z,0
2017-05-03T05:06:54.691Z,0
2017-05-03T05:08:07.002Z,0
2017-05-03T05:09:18.833Z,0
2017-05-03T05:10:31.625Z,0
2017-05-03T05:11:44.413Z,0
2017-05-03T05:12:56.244Z,0
2017-05-03T05:14:09.048Z,0
2017-05-03T05:15:21.846Z,0
2017-05-03T05:16:33.673Z,0
2017-05-03T05:17:46.755Z,0
2017-05-03T05:18:59.070Z,0
2017-05-03T05:20:10.900Z,0
2017-05-03T05:21:23.208Z,0
2017-05-03T05:24:02.871Z,0
2017-05-03T05:25:15.674Z,0
2017-05-03T05:26:28.461Z,0
2017-05-03T05:27:41.254Z,0
2017-05-03T05:28:53.088Z,0
2017-05-03T05:30:05.891Z,0
2017-05-03T05:31:18.688Z,0
2017-05-03T05:32:30.995Z,0
2017-05-03T05:33:43.310Z,0
2017-05-03T05:34:56.109Z,0
2017-05-03T05:36:07.455Z,0
2017-05-03T05:37:20.246Z,0
2017-05-03T05:38:33.042Z,0
2017-05-03T05:39:45.834Z,0
2017-05-03T05:40:58.625Z,0
2017-05-03T05:42:10.926Z,0
2017-05-03T05:43:23.241Z,0
2017-05-03T05:44:36.045Z,0
2017-05-03T05:45:48.838Z,0
2017-05-03T05:47:01.143Z,0
2017-05-03T05:48:13.933Z,0
2017-05-03T05:49:26.733Z,0
2017-05-03T05:50:39.039Z,0
2017-05-03T05:51:51.822Z,0
2017-05-03T05:53:04.618Z,0
2017-05-03T05:54:16.929Z,0
2017-05-03T05:55:29.241Z,0
2017-05-03T05:56:42.031Z,0
2017-05-03T05:57:54.828Z,0
2017-05-03T05:59:07.144Z,0
2017-05-03T06:00:19.463Z,0
2017-05-03T06:01:32.305Z,0
2017-05-03T06:02:45.093Z,0
2017-05-03T06:03:57.892Z,0
2017-05-03T06:05:10.203Z,0
2017-05-03T06:06:22.812Z,0
2017-05-03T06:07:35.601Z,0
2017-05-03T06:08:48.395Z,0
2017-05-03T06:10:01.204Z,0
2017-05-03T06:11:13.815Z,0
2017-05-03T06:12:26.130Z,0
2017-05-03T06:13:38.931Z,0
2017-05-03T06:14:51.729Z,0
2017-05-03T06:16:04.523Z,0
2017-05-03T06:17:17.623Z,0
2017-05-03T06:18:30.413Z,0
2017-05-03T06:19:43.209Z,0
2017-05-03T06:20:56.004Z,0
2017-05-03T06:23:35.666Z,0
2017-05-03T06:24:47.971Z,0
2017-05-03T06:26:00.279Z,0
2017-05-03T06:27:12.595Z,0
2017-05-03T06:28:24.904Z,0
2017-05-03T06:29:37.707Z,0
2017-05-03T06:30:50.501Z,0
2017-05-03T06:32:03.293Z,0
2017-05-03T06:33:15.912Z,0
2017-05-03T06:34:28.700Z,0
2017-05-03T06:35:40.530Z,0
2017-05-03T06:36:53.326Z,0
2017-05-03T06:38:06.367Z,0
2017-05-03T06:39:19.159Z,0
2017-05-03T06:40:31.510Z,0
2017-05-03T06:41:43.816Z,0
2017-05-03T06:42:55.646Z,0
2017-05-03T06:44:08.447Z,0
2017-05-03T06:45:21.237Z,0
2017-05-03T06:46:33.554Z,0
2017-05-03T06:47:45.866Z,0
2017-05-03T06:48:58.190Z,0
2017-05-03T06:50:10.511Z,0
2017-05-03T06:51:23.305Z,0
2017-05-03T06:52:35.602Z,0
2017-05-03T06:53:48.386Z,0
2017-05-03T06:55:01.171Z,0
2017-05-03T06:56:13.482Z,0
2017-05-03T06:57:26.263Z,0
2017-05-03T06:58:39.055Z,0
2017-05-03T06:59:51.355Z,0
2017-05-03T07:01:04.147Z,0
2017-05-03T07:02:16.446Z,0
2017-05-03T07:03:28.746Z,0
2017-05-03T07:04:41.526Z,0
2017-05-03T07:05:54.309Z,0
2017-05-03T07:07:07.092Z,0
2017-05-03T07:08:18.909Z,0
2017-05-03T07:09:31.688Z,0
2017-05-03T07:10:44.463Z,0
2017-05-03T07:11:57.242Z,0
2017-05-03T07:13:10.025Z,0
2017-05-03T07:14:22.808Z,0
2017-05-03T07:15:35.588Z,0
2017-05-03T07:16:48.704Z,0
2017-05-03T07:18:01.493Z,0
2017-05-03T07:19:13.803Z,0
2017-05-03T07:20:26.103Z,0
2017-05-03T07:21:38.432Z,0
2017-05-03T07:22:51.219Z,0
2017-05-03T07:24:03.998Z,0
2017-05-03T07:25:16.294Z,0
2017-05-03T07:26:29.075Z,0
2017-05-03T07:27:41.380Z,0
2017-05-03T07:28:54.168Z,0
2017-05-03T07:30:06.951Z,0
2017-05-03T07:31:19.246Z,0
2017-05-03T07:32:30.884Z,0
2017-05-03T07:33:43.669Z,0
2017-05-03T07:34:56.450Z,0
2017-05-03T07:36:09.231Z,0
2017-05-03T07:37:21.527Z,0
2017-05-03T07:38:34.609Z,0
2017-05-03T07:39:46.910Z,0
2017-05-03T07:40:59.688Z,0
2017-05-03T07:42:11.984Z,0
2017-05-03T07:43:24.767Z,0
2017-05-03T07:44:37.550Z,0
2017-05-03T07:45:50.331Z,0
2017-05-03T07:47:03.111Z,0
2017-05-03T07:48:15.413Z,0
2017-05-03T07:49:27.710Z,0
2017-05-03T07:50:40.530Z,0
2017-05-03T07:51:53.314Z,0
2017-05-03T07:53:05.620Z,0
2017-05-03T07:54:18.217Z,0
2017-05-03T07:55:30.523Z,0
2017-05-03T07:56:43.306Z,0
2017-05-03T07:57:56.086Z,0
2017-05-03T07:59:08.387Z,0
2017-05-03T08:00:21.467Z,0
2017-05-03T08:01:33.767Z,0
2017-05-03T08:02:46.549Z,0
2017-05-03T08:03:59.327Z,0
2017-05-03T08:05:11.630Z,0
2017-05-03T08:06:23.933Z,0
2017-05-03T08:07:36.717Z,0
2017-05-03T08:08:49.021Z,0
2017-05-03T08:10:01.820Z,0
2017-05-03T08:11:13.638Z,0
2017-05-03T08:12:26.423Z,0
2017-05-03T08:13:38.245Z,0
2017-05-03T08:14:51.032Z,0
2017-05-03T08:16:04.118Z,0
2017-05-03T08:17:16.902Z,0
2017-05-03T08:18:29.210Z,0
2017-05-03T08:19:41.991Z,0
2017-05-03T08:20:54.775Z,0
2017-05-03T08:22:07.382Z,0
2017-05-03T08:23:19.717Z,0
2017-05-03T08:24:31.592Z,0
2017-05-03T08:25:44.386Z,0
2017-05-03T08:26:57.169Z,0
2017-05-03T08:28:09.482Z,0
2017-05-03T08:29:22.270Z,0
2017-05-03T08:30:34.587Z,0
2017-05-03T08:31:46.899Z,0
2017-05-03T08:32:59.696Z,0
2017-05-03T08:34:11.530Z,0
2017-05-03T08:35:23.842Z,0
2017-05-03T08:36:36.657Z,0
2017-05-03T08:37:49.449Z,0
2017-05-03T08:39:02.246Z,0
2017-05-03T08:40:15.041Z,0
2017-05-03T08:41:27.362Z,0
2017-05-03T08:42:39.671Z,0
2017-05-03T08:43:52.715Z,0
2017-05-03T08:45:04.542Z,0
2017-05-03T08:46:16.370Z,0
2017-05-03T08:47:29.161Z,0
2017-05-03T08:48:41.774Z,0
2017-05-03T08:49:54.573Z,0
2017-05-03T08:51:07.374Z,0
2017-05-03T08:52:20.171Z,0
2017-05-03T08:53:32.487Z,0
2017-05-03T08:54:44.803Z,0
2017-05-03T08:55:57.598Z,0
2017-05-03T08:57:09.908Z,0
2017-05-03T08:58:22.703Z,0
2017-05-03T08:59:35.497Z,0
2017-05-03T09:00:47.808Z,0
2017-05-03T09:02:00.604Z,0
2017-05-03T09:03:13.407Z,0
2017-05-03T09:04:26.200Z,0
2017-05-03T09:05:39.232Z,0
2017-05-03T09:06:52.011Z,0
2017-05-03T09:08:04.321Z,0
2017-05-03T09:09:16.145Z,0
2017-05-03T09:10:28.450Z,0
2017-05-03T09:11:41.245Z,0
2017-05-03T09:12:54.033Z,0
2017-05-03T09:14:06.819Z,0
2017-05-03T09:15:19.598Z,0
2017-05-03T09:16:32.383Z,0
2017-05-03T09:17:45.205Z,0
2017-05-03T09:18:57.504Z,0
2017-05-03T09:20:10.293Z,0
2017-05-03T09:21:23.073Z,0
2017-05-03T09:22:35.387Z,0
2017-05-03T09:23:48.179Z,0
2017-05-03T09:25:00.970Z,0
2017-05-03T09:26:13.762Z,0
2017-05-03T09:27:26.552Z,0
2017-05-03T09:28:39.341Z,0
2017-05-03T09:29:51.649Z,0
2017-05-03T09:31:04.432Z,0
2017-05-03T09:32:17.227Z,0
2017-05-03T09:33:29.536Z,0
2017-05-03T09:34:42.321Z,0
2017-05-03T09:35:55.112Z,0
2017-05-03T09:37:07.419Z,0
2017-05-03T09:38:19.247Z,0
2017-05-03T09:39:32.033Z,0
2017-05-03T09:40:44.340Z,0
2017-05-03T09:41:57.134Z,0
2017-05-03T09:43:09.747Z,0
2017-05-03T09:44:22.533Z,0
2017-05-03T09:45:35.323Z,0
2017-05-03T09:46:48.107Z,0
2017-05-03T09:48:00.420Z,0
2017-05-03T09:49:13.217Z,0
2017-05-03T09:50:25.526Z,0
2017-05-03T09:51:37.351Z,0
2017-05-03T09:52:49.177Z,0
2017-05-03T09:54:01.965Z,0
2017-05-03T09:55:14.266Z,0
2017-05-03T09:56:27.047Z,0
2017-05-03T09:57:39.347Z,0
2017-05-03T09:58:52.132Z,0
2017-05-03T10:00:04.933Z,0
2017-05-03T10:01:17.234Z,0
2017-05-03T10:02:29.534Z,0
2017-05-03T10:03:41.834Z,0
2017-05-03T10:04:54.623Z,0
2017-05-03T10:06:07.662Z,0
2017-05-03T10:07:20.445Z,0
2017-05-03T10:08:33.222Z,0
2017-05-03T10:09:45.565Z,5
2017-05-03T10:10:58.345Z,5
2017-05-03T10:12:11.126Z,5
2017-05-03T10:13:23.905Z,5
2017-05-03T10:14:36.693Z,5
2017-05-03T10:15:49.024Z,5
2017-05-03T10:17:02.072Z,5
2017-05-03T10:18:14.403Z,5
2017-05-03T10:19:27.184Z,5
2017-05-03T10:20:39.483Z,5
2017-05-03T10:21:52.030Z,5
2017-05-03T10:23:04.811Z,5
2017-05-03T10:24:17.124Z,5
2017-05-03T10:25:29.421Z,5
2017-05-03T10:26:41.714Z,5
2017-05-03T10:27:54.017Z,5
2017-05-03T10:29:05.849Z,5
2017-05-03T10:30:17.668Z,5
2017-05-03T10:31:30.449Z,5
2017-05-03T10:32:42.749Z,5
2017-05-03T10:33:55.055Z,5
2017-05-03T10:35:07.835Z,5
2017-05-03T10:36:20.132Z,5
2017-05-03T10:37:32.432Z,5
2017-05-03T10:38:45.522Z,10
2017-05-03T10:39:57.818Z,10
2017-05-03T10:41:10.598Z,10
2017-05-03T10:42:22.895Z,10
2017-05-03T10:43:35.682Z,10
2017-05-03T10:44:48.458Z,10
2017-05-03T10:46:01.233Z,10
2017-05-03T10:47:13.531Z,10
2017-05-03T10:48:25.828Z,10
2017-05-03T10:49:38.122Z,10
2017-05-03T10:50:50.899Z,10
2017-05-03T10:52:03.680Z,10
2017-05-03T10:53:16.460Z,10
2017-05-03T10:54:28.754Z,10
2017-05-03T10:55:41.051Z,10
2017-05-03T10:56:53.827Z,10
2017-05-03T10:58:06.606Z,10
2017-05-03T10:59:19.387Z,10
2017-05-03T11:00:32.418Z,10
2017-05-03T11:01:45.202Z,10
2017-05-03T11:02:57.981Z,10
2017-05-03T11:04:09.798Z,10
2017-05-03T11:05:22.091Z,15
2017-05-03T11:06:34.868Z,15
2017-05-03T11:07:47.188Z,15
2017-05-03T11:08:59.979Z,15
2017-05-03T11:10:12.763Z,15
2017-05-03T11:11:25.060Z,15
2017-05-03T11:12:37.839Z,15
2017-05-03T11:13:50.139Z,15
2017-05-03T11:15:02.446Z,15
2017-05-03T11:16:15.222Z,15
2017-05-03T11:17:28.002Z,15
2017-05-03T11:18:40.303Z,15
2017-05-03T11:19:53.085Z,20
2017-05-03T11:21:05.869Z,20
2017-05-03T11:22:18.167Z,20
2017-05-03T11:23:30.949Z,20
2017-05-03T11:24:43.245Z,20
2017-05-03T11:25:56.023Z,20
2017-05-03T11:27:08.801Z,20
2017-05-03T11:28:21.097Z,20
2017-05-03T11:29:33.399Z,20
2017-05-03T11:30:45.695Z,20
2017-05-03T11:31:58.470Z,20
2017-05-03T11:33:10.765Z,20
2017-05-03T11:34:23.063Z,30
2017-05-03T11:35:35.358Z,25
2017-05-03T11:36:47.657Z,25
2017-05-03T11:38:00.438Z,20
2017-05-03T11:39:12.737Z,20
2017-05-03T11:40:25.514Z,20
2017-05-03T11:41:37.331Z,30
2017-05-03T11:42:49.637Z,20
2017-05-03T11:44:02.416Z,20
2017-05-03T11:45:14.715Z,20
2017-05-03T11:46:27.510Z,20
2017-05-03T11:47:40.286Z,20
2017-05-03T11:48:52.830Z,25
2017-05-03T11:50:05.609Z,35
2017-05-03T11:51:17.424Z,20
2017-05-03T11:52:30.203Z,20
2017-05-03T11:53:42.992Z,30
2017-05-03T11:54:56.020Z,50
2017-05-03T11:56:08.820Z,40
2017-05-03T11:57:21.120Z,35
2017-05-03T11:58:33.906Z,50
2017-05-03T11:59:46.685Z,50
2017-05-03T12:00:59.466Z,35
2017-05-03T12:02:12.243Z,35
2017-05-03T12:03:25.025Z,25
2017-05-03T12:04:37.802Z,40
2017-05-03T12:05:50.833Z,45
2017-05-03T12:07:03.151Z,45
2017-05-03T12:08:15.942Z,25
2017-05-03T12:09:28.726Z,25
2017-05-03T12:10:41.286Z,25
2017-05-03T12:11:54.085Z,35
2017-05-03T12:13:06.393Z,55
2017-05-03T12:14:18.217Z,50
2017-05-03T12:15:31.003Z,50
2017-05-03T12:16:44.033Z,35
2017-05-03T12:17:56.341Z,35
2017-05-03T12:19:08.646Z,45
2017-05-03T12:20:21.442Z,45
2017-05-03T12:21:34.230Z,50
2017-05-03T12:22:46.541Z,50
2017-05-03T12:23:59.352Z,60
2017-05-03T12:25:11.658Z,50
2017-05-03T12:26:23.967Z,55
2017-05-03T12:27:37.021Z,55
2017-05-03T12:28:49.336Z,55
2017-05-03T12:30:02.129Z,50
2017-05-03T12:31:14.921Z,50
2017-05-03T12:32:27.976Z,50
2017-05-03T12:33:40.770Z,55
2017-05-03T12:34:53.561Z,55
2017-05-03T12:36:06.353Z,50
2017-05-03T12:37:19.149Z,55
2017-05-03T12:38:32.039Z,55
2017-05-03T12:39:44.832Z,55
2017-05-03T12:40:57.625Z,55
2017-05-03T12:42:10.423Z,55
2017-05-03T12:43:22.539Z,55
2017-05-03T12:44:35.333Z,50
2017-05-03T12:45:48.128Z,50
2017-05-03T12:47:00.441Z,55
2017-05-03T12:48:13.233Z,55
2017-05-03T12:49:26.028Z,55
2017-05-03T12:50:38.833Z,55
2017-05-03T12:51:51.643Z,50
2017-05-03T12:53:03.472Z,50
2017-05-03T12:54:16.263Z,50
2017-05-03T12:55:29.046Z,55
2017-05-03T12:56:41.840Z,55
2017-05-03T12:57:54.783Z,55
2017-05-03T12:59:07.096Z,50
2017-05-03T13:00:18.926Z,50
2017-05-03T13:01:31.734Z,50
2017-05-03T13:02:44.826Z,50
2017-05-03T13:03:57.616Z,55
2017-05-03T13:05:09.922Z,55
2017-05-03T13:06:22.230Z,55
2017-05-03T13:07:35.016Z,50
2017-05-03T13:08:47.322Z,50
2017-05-03T13:09:59.146Z,50
2017-05-03T13:11:11.455Z,50
2017-05-03T13:12:23.756Z,55
2017-05-03T13:13:36.547Z,60
2017-05-03T13:14:49.330Z,55
2017-05-03T13:16:01.166Z,55
2017-05-03T13:17:13.466Z,50
2017-05-03T13:18:26.080Z,50
2017-05-03T13:19:52.947Z,50
2017-05-03T13:21:05.738Z,55
2017-05-03T13:22:17.559Z,55
2017-05-03T13:23:30.599Z,55
2017-05-03T13:24:43.393Z,50
2017-05-03T13:25:56.192Z,50
2017-05-03T13:27:08.990Z,55
2017-05-03T13:28:21.782Z,55
2017-05-03T13:29:33.610Z,50
2017-05-03T13:30:46.396Z,50
2017-05-03T13:31:58.710Z,50
2017-05-03T13:33:10.540Z,50
2017-05-03T13:34:23.340Z,50
2017-05-03T13:35:36.438Z,50
2017-05-03T13:36:49.225Z,50
2017-05-03T13:38:02.015Z,50
2017-05-03T13:39:14.804Z,50
2017-05-03T13:40:27.407Z,50
2017-05-03T13:41:40.198Z,50
2017-05-03T13:42:52.499Z,50
2017-05-03T13:44:05.293Z,50
2017-05-03T13:45:17.597Z,50
2017-05-03T13:46:30.149Z,50
2017-05-03T13:47:42.953Z,50
2017-05-03T13:48:55.740Z,50
2017-05-03T13:50:08.524Z,50
2017-05-03T13:51:21.564Z,50
2017-05-03T13:52:34.347Z,50
2017-05-03T13:53:46.656Z,50
2017-05-03T13:54:59.444Z,50
2017-05-03T13:56:12.238Z,50
2017-05-03T13:57:25.321Z,55
2017-05-03T13:58:38.105Z,50
2017-05-03T13:59:50.894Z,50
2017-05-03T14:01:03.202Z,50
2017-05-03T14:02:15.507Z,55
2017-05-03T14:03:28.292Z,55
2017-05-03T14:04:40.594Z,55
2017-05-03T14:05:53.378Z,55
2017-05-03T14:07:06.167Z,55
2017-05-03T14:08:18.724Z,55
2017-05-03T14:09:31.041Z,55
2017-05-03T14:10:43.827Z,55
2017-05-03T14:11:56.826Z,55
2017-05-03T14:13:09.869Z,55
2017-05-03T14:14:22.665Z,55
2017-05-03T14:15:34.979Z,55
2017-05-03T14:16:47.771Z,55
2017-05-03T14:18:00.075Z,55
2017-05-03T14:19:13.129Z,55
2017-05-03T14:20:25.447Z,55
2017-05-03T14:21:37.759Z,55
2017-05-03T14:22:50.564Z,55
2017-05-03T14:24:03.614Z,50
2017-05-03T14:25:16.415Z,50
2017-05-03T14:26:28.731Z,50
2017-05-03T14:27:41.051Z,50
2017-05-03T14:28:53.848Z,50
2017-05-03T14:30:06.650Z,50
2017-05-03T14:31:18.968Z,55
2017-05-03T14:32:31.774Z,55
2017-05-03T14:33:44.586Z,55
2017-05-03T14:34:57.414Z,50
2017-05-03T14:36:09.736Z,50
2017-05-03T14:37:22.540Z,50
2017-05-03T14:38:34.878Z,45
2017-05-03T14:39:47.198Z,45
2017-05-03T14:40:59.521Z,45
2017-05-03T14:42:11.841Z,45
2017-05-03T14:43:24.160Z,45
2017-05-03T14:44:36.958Z,45
2017-05-03T14:45:50.014Z,45
2017-05-03T14:47:02.821Z,45
2017-05-03T14:48:15.144Z,45
2017-05-03T14:49:27.473Z,40
2017-05-03T14:50:40.271Z,40
2017-05-03T14:51:52.106Z,40
2017-05-03T14:53:04.424Z,40
2017-05-03T14:54:17.242Z,40
2017-05-03T14:55:30.040Z,40
2017-05-03T14:58:09.231Z,40
2017-05-03T14:59:21.547Z,40
2017-05-03T15:00:33.859Z,40
2017-05-03T15:01:45.941Z,40
2017-05-03T15:02:57.780Z,40
2017-05-03T15:04:10.580Z,40
2017-05-03T15:05:22.916Z,40
2017-05-03T15:06:35.234Z,35
2017-05-03T15:07:48.038Z,35
2017-05-03T15:09:00.353Z,35
2017-05-03T15:10:13.153Z,35
2017-05-03T15:11:25.468Z,35
2017-05-03T15:12:38.418Z,35
2017-05-03T15:13:49.781Z,30
2017-05-03T15:15:02.586Z,30
2017-05-03T15:16:14.897Z,30
2017-05-03T15:17:27.699Z,30
2017-05-03T15:18:40.028Z,30
2017-05-03T15:19:52.833Z,30
2017-05-03T15:21:05.152Z,30
2017-05-03T15:22:17.465Z,30
2017-05-03T15:23:30.262Z,30
2017-05-03T15:24:42.581Z,30
2017-05-03T15:25:55.371Z,30
2017-05-03T15:27:08.155Z,30
2017-05-03T15:28:19.981Z,25
2017-05-03T15:29:32.786Z,25
2017-05-03T15:30:45.583Z,25
2017-05-03T15:31:58.371Z,25
2017-05-03T15:33:10.204Z,25
2017-05-03T15:34:23.018Z,25
2017-05-03T15:35:35.819Z,25
2017-05-03T15:36:48.612Z,25
2017-05-03T15:38:00.916Z,25
2017-05-03T15:39:13.229Z,25
2017-05-03T15:40:26.022Z,25
2017-05-03T15:41:38.812Z,20
2017-05-03T15:42:51.604Z,20
2017-05-03T15:44:03.436Z,20
2017-05-03T15:45:15.269Z,25
2017-05-03T15:46:27.579Z,25
2017-05-03T15:47:40.367Z,25
2017-05-03T15:48:53.166Z,25
2017-05-03T15:50:05.478Z,25
2017-05-03T15:51:17.798Z,25
2017-05-03T15:52:42.844Z,20
2017-05-03T15:53:55.632Z,20
2017-05-03T15:55:08.433Z,20
2017-05-03T15:56:21.221Z,20
2017-05-03T15:57:34.022Z,20
2017-05-03T15:58:46.814Z,20
2017-05-03T15:59:59.605Z,20
2017-05-03T16:01:12.399Z,20
2017-05-03T16:02:25.190Z,20
2017-05-03T16:03:37.025Z,20
2017-05-03T16:04:49.824Z,20
2017-05-03T16:06:02.821Z,20
2017-05-03T16:07:15.135Z,20
2017-05-03T16:08:27.929Z,20
2017-05-03T16:09:40.241Z,20
2017-05-03T16:10:52.380Z,20
2017-05-03T16:12:05.171Z,20
2017-05-03T16:13:17.505Z,20
2017-05-03T16:14:30.296Z,15
2017-05-03T16:15:43.100Z,15
2017-05-03T16:16:55.902Z,15
2017-05-03T16:18:08.694Z,15
2017-05-03T16:19:21.019Z,20
2017-05-03T16:20:33.817Z,15
2017-05-03T16:21:46.617Z,15
2017-05-03T16:22:59.417Z,15
2017-05-03T16:24:11.730Z,15
2017-05-03T16:25:24.523Z,15
2017-05-03T16:26:37.327Z,15
2017-05-03T16:27:49.632Z,15
2017-05-03T16:29:01.454Z,20
2017-05-03T16:30:13.760Z,20
2017-05-03T16:31:26.574Z,20
2017-05-03T16:32:38.887Z,15
2017-05-03T16:33:51.677Z,15
2017-05-03T16:35:03.514Z,15
2017-05-03T16:36:15.832Z,20
2017-05-03T16:37:28.617Z,20
2017-05-03T16:38:41.403Z,15
2017-05-03T16:39:54.203Z,15
2017-05-03T16:41:06.996Z,15
2017-05-03T16:42:19.306Z,15
2017-05-03T16:43:32.093Z,15
2017-05-03T16:44:44.890Z,15
2017-05-03T16:45:57.191Z,15
2017-05-03T16:47:09.011Z,15
2017-05-03T16:48:22.051Z,15
2017-05-03T16:49:34.357Z,15
2017-05-03T16:51:01.232Z,15
2017-05-03T16:52:13.572Z,15
2017-05-03T16:53:26.181Z,15
2017-05-03T16:54:38.974Z,15
2017-05-03T16:55:51.763Z,15
2017-05-03T16:57:04.554Z,15
2017-05-03T16:58:16.862Z,15
2017-05-03T16:59:29.949Z,15
2017-05-03T17:00:42.741Z,15
2017-05-03T17:01:55.534Z,15
2017-05-03T17:03:08.327Z,15
2017-05-03T17:04:21.118Z,15
2017-05-03T17:05:33.429Z,15
2017-05-03T17:06:46.223Z,15
2017-05-03T17:07:59.023Z,15
2017-05-03T17:09:11.331Z,15
2017-05-03T17:10:24.418Z,15
2017-05-03T17:11:37.238Z,15
2017-05-03T17:12:50.027Z,15
2017-05-03T17:14:02.814Z,15
2017-05-03T17:15:15.911Z,15
2017-05-03T17:16:28.724Z,15
2017-05-03T17:17:40.549Z,15
2017-05-03T17:18:53.337Z,15
2017-05-03T17:20:05.650Z,15
2017-05-03T17:21:17.952Z,15
2017-05-03T17:22:30.927Z,15
2017-05-03T17:23:43.296Z,15
2017-05-03T17:24:55.138Z,15
2017-05-03T17:26:07.938Z,15
2017-05-03T17:27:20.249Z,15
2017-05-03T17:28:33.051Z,15
2017-05-03T17:29:45.863Z,15
2017-05-03T17:30:58.657Z,15
2017-05-03T17:32:11.771Z,15
2017-05-03T17:33:24.092Z,15
2017-05-03T17:34:36.896Z,15
2017-05-03T17:35:49.209Z,15
2017-05-03T17:37:00.770Z,15
2017-05-03T17:38:13.568Z,15
2017-05-03T17:39:26.375Z,15
2017-05-03T17:40:38.210Z,15
2017-05-03T17:41:51.009Z,15
2017-05-03T17:43:03.319Z,20